2026/08/08

Sensor Date Temp./Hum.
h4-hermonville 08-08-2026 - 23:58 23.4°C / 38%
h2-hermonville 08-08-2026 - 23:54 22.6°C / 40.5%
h1-hermonville 08-08-2026 - 23:54 22.3°C / 40%
h3-hermonville 08-08-2026 - 23:50 22.3°C / 36.5%
h4-hermonville 08-08-2026 - 23:48 23.4°C / 37.5%
h2-hermonville 08-08-2026 - 23:44 22.9°C / 39%
h1-hermonville 08-08-2026 - 23:44 22.4°C / 39.5%
h3-hermonville 08-08-2026 - 23:40 22.1°C / 36.5%
h4-hermonville 08-08-2026 - 23:38 23.3°C / 37.5%
h2-hermonville 08-08-2026 - 23:34 22.8°C / 38%
h1-hermonville 08-08-2026 - 23:34 22.4°C / 38.5%
h3-hermonville 08-08-2026 - 23:30 22.2°C / 38%
h4-hermonville 08-08-2026 - 23:28 23.5°C / 38%
h2-hermonville 08-08-2026 - 23:24 23°C / 40%
h1-hermonville 08-08-2026 - 23:24 22.7°C / 40.5%
h3-hermonville 08-08-2026 - 23:20 22.3°C / 39%
h4-hermonville 08-08-2026 - 23:18 23.5°C / 37.5%
h2-hermonville 08-08-2026 - 23:14 23°C / 38%
h1-hermonville 08-08-2026 - 23:14 22.8°C / 39%
h3-hermonville 08-08-2026 - 23:10 22.4°C / 40%
h4-hermonville 08-08-2026 - 23:08 23.7°C / 38.5%
h2-hermonville 08-08-2026 - 23:04 23°C / 40.5%
h1-hermonville 08-08-2026 - 23:04 23.1°C / 40.5%
h3-hermonville 08-08-2026 - 23:00 22.8°C / 38%
h4-hermonville 08-08-2026 - 22:58 23.8°C / 38%
h2-hermonville 08-08-2026 - 22:54 23.5°C / 39.5%
h3-hermonville 08-08-2026 - 22:50 22.9°C / 37.5%
h4-hermonville 08-08-2026 - 22:48 24°C / 38.5%
h2-hermonville 08-08-2026 - 22:44 23.6°C / 39.5%
h1-hermonville 08-08-2026 - 22:44 23.3°C / 40%
h3-hermonville 08-08-2026 - 22:40 23°C / 39%
h4-hermonville 08-08-2026 - 22:38 24°C / 38.5%
h2-hermonville 08-08-2026 - 22:34 23.8°C / 40%
h1-hermonville 08-08-2026 - 22:34 23.5°C / 39.5%
h3-hermonville 08-08-2026 - 22:30 23.2°C / 38%
h4-hermonville 08-08-2026 - 22:28 24.2°C / 38%
h1-hermonville 08-08-2026 - 22:24 23.7°C / 40%
h3-hermonville 08-08-2026 - 22:20 23.3°C / 38%
h4-hermonville 08-08-2026 - 22:18 24.2°C / 39%
h2-hermonville 08-08-2026 - 22:14 24°C / 40.5%
h1-hermonville 08-08-2026 - 22:14 23.7°C / 40.5%
h3-hermonville 08-08-2026 - 22:10 23.4°C / 40%
h4-hermonville 08-08-2026 - 22:08 24.4°C / 39%
h2-hermonville 08-08-2026 - 22:04 24.5°C / 41.5%
h1-hermonville 08-08-2026 - 22:04 23.8°C / 40.5%
h3-hermonville 08-08-2026 - 22:00 23.8°C / 38%
h4-hermonville 08-08-2026 - 21:58 24.4°C / 39.5%
h2-hermonville 08-08-2026 - 21:54 24.2°C / 40%
h1-hermonville 08-08-2026 - 21:54 24°C / 39.5%
h3-hermonville 08-08-2026 - 21:50 23.9°C / 40%
h4-hermonville 08-08-2026 - 21:48 24.7°C / 39%
h2-hermonville 08-08-2026 - 21:44 24.7°C / 40.5%
h1-hermonville 08-08-2026 - 21:44 24.3°C / 40%
h3-hermonville 08-08-2026 - 21:40 24.1°C / 38.5%
h4-hermonville 08-08-2026 - 21:38 24.8°C / 39%
h2-hermonville 08-08-2026 - 21:34 25.2°C / 38.5%
h1-hermonville 08-08-2026 - 21:34 24.5°C / 40%
h3-hermonville 08-08-2026 - 21:30 24.7°C / 41%
h4-hermonville 08-08-2026 - 21:28 25°C / 39%
h2-hermonville 08-08-2026 - 21:24 25.7°C / 40%
h1-hermonville 08-08-2026 - 21:24 24.7°C / 40%
h3-hermonville 08-08-2026 - 21:20 24.7°C / 37.5%
h4-hermonville 08-08-2026 - 21:18 25.3°C / 38%
h2-hermonville 08-08-2026 - 21:14 26.1°C / 39%
h1-hermonville 08-08-2026 - 21:14 25.1°C / 39.5%
h4-hermonville 08-08-2026 - 21:08 25.5°C / 37.5%
h2-hermonville 08-08-2026 - 21:04 26.5°C / 38%
h1-hermonville 08-08-2026 - 21:04 25.6°C / 38%
h3-hermonville 08-08-2026 - 21:00 26.4°C / 37%
h4-hermonville 08-08-2026 - 20:58 25.9°C / 36.5%
h2-hermonville 08-08-2026 - 20:54 27.6°C / 35.5%
h4-hermonville 08-08-2026 - 20:48 26.3°C / 35%
h2-hermonville 08-08-2026 - 20:44 27.6°C / 34.5%
h1-hermonville 08-08-2026 - 20:44 26.8°C / 34.5%
h3-hermonville 08-08-2026 - 20:40 27.2°C / 33.5%
h4-hermonville 08-08-2026 - 20:38 26.8°C / 33.5%
h2-hermonville 08-08-2026 - 20:34 27°C / 34.5%
h1-hermonville 08-08-2026 - 20:34 27.4°C / 33.5%
h3-hermonville 08-08-2026 - 20:30 27.7°C / 29.5%
h4-hermonville 08-08-2026 - 20:28 27.1°C / 30%
h1-hermonville 08-08-2026 - 20:24 27.9°C / 28.5%
h3-hermonville 08-08-2026 - 20:20 27.7°C / 29%
h4-hermonville 08-08-2026 - 20:18 27.4°C / 29%
h2-hermonville 08-08-2026 - 20:14 28.1°C / 30.5%
h1-hermonville 08-08-2026 - 20:14 27.9°C / 28.5%
h3-hermonville 08-08-2026 - 20:10 27.6°C / 28.5%
h4-hermonville 08-08-2026 - 20:08 27.4°C / 28.5%
h2-hermonville 08-08-2026 - 20:04 29.3°C / 29%
h1-hermonville 08-08-2026 - 20:04 28°C / 28.5%
h3-hermonville 08-08-2026 - 20:00 27.6°C / 29%
h4-hermonville 08-08-2026 - 19:58 27.7°C / 28.5%
h2-hermonville 08-08-2026 - 19:54 29.3°C / 28%
h1-hermonville 08-08-2026 - 19:54 28°C / 28%
h4-hermonville 08-08-2026 - 19:48 28°C / 28%
h1-hermonville 08-08-2026 - 19:44 28°C / 28.5%
h3-hermonville 08-08-2026 - 19:40 27.3°C / 29%
h4-hermonville 08-08-2026 - 19:38 28.1°C / 27%
h2-hermonville 08-08-2026 - 19:34 29.5°C / 26.5%
h1-hermonville 08-08-2026 - 19:34 28.1°C / 28%
h3-hermonville 08-08-2026 - 19:30 27.5°C / 29%
h4-hermonville 08-08-2026 - 19:28 28.2°C / 27.5%
h2-hermonville 08-08-2026 - 19:24 29.6°C / 26.5%
h1-hermonville 08-08-2026 - 19:24 28.2°C / 27.5%
h3-hermonville 08-08-2026 - 19:20 27.6°C / 28.5%
h4-hermonville 08-08-2026 - 19:18 28.2°C / 27%
h2-hermonville 08-08-2026 - 19:14 29.9°C / 26.5%
h1-hermonville 08-08-2026 - 19:14 28.3°C / 27%
h3-hermonville 08-08-2026 - 19:10 27.8°C / 28%
h4-hermonville 08-08-2026 - 19:08 28.3°C / 27.5%
h2-hermonville 08-08-2026 - 19:04 30.2°C / 26.5%
h1-hermonville 08-08-2026 - 19:04 28.3°C / 27.5%
h3-hermonville 08-08-2026 - 19:00 28.2°C / 27%
h4-hermonville 08-08-2026 - 18:58 28.1°C / 27%
h2-hermonville 08-08-2026 - 18:54 30.7°C / 25%
h1-hermonville 08-08-2026 - 18:54 27.8°C / 27.5%
h3-hermonville 08-08-2026 - 18:50 28.3°C / 27%
h4-hermonville 08-08-2026 - 18:48 28.2°C / 26.5%
h2-hermonville 08-08-2026 - 18:44 32.2°C / 24.5%
h1-hermonville 08-08-2026 - 18:44 28°C / 27%
h3-hermonville 08-08-2026 - 18:40 28.5°C / 26.5%
h4-hermonville 08-08-2026 - 18:38 28.2°C / 27%
h2-hermonville 08-08-2026 - 18:34 31.5°C / 24%
h1-hermonville 08-08-2026 - 18:34 27.7°C / 27.5%
h3-hermonville 08-08-2026 - 18:30 28.5°C / 27%
h4-hermonville 08-08-2026 - 18:28 28.3°C / 27%
h2-hermonville 08-08-2026 - 18:24 30.9°C / 25%
h3-hermonville 08-08-2026 - 18:20 29.2°C / 26%
h4-hermonville 08-08-2026 - 18:18 28.2°C / 27%
h1-hermonville 08-08-2026 - 18:14 27.9°C / 28%
h3-hermonville 08-08-2026 - 18:10 29.2°C / 26%
h4-hermonville 08-08-2026 - 18:08 28°C / 27%
h1-hermonville 08-08-2026 - 18:04 28.1°C / 27%
h3-hermonville 08-08-2026 - 18:00 29.2°C / 25.5%
h4-hermonville 08-08-2026 - 17:58 28°C / 27%
h2-hermonville 08-08-2026 - 17:54 32.6°C / 24.5%
h1-hermonville 08-08-2026 - 17:54 28.2°C / 27.5%
h3-hermonville 08-08-2026 - 17:50 29.3°C / 25.5%
h4-hermonville 08-08-2026 - 17:48 27.8°C / 28%
h3-hermonville 08-08-2026 - 17:40 29.3°C / 25%
h4-hermonville 08-08-2026 - 17:38 27.9°C / 27%
h2-hermonville 08-08-2026 - 17:34 31.9°C / 23%
h1-hermonville 08-08-2026 - 17:34 27.8°C / 27.5%
h3-hermonville 08-08-2026 - 17:30 28.9°C / 25.5%
h4-hermonville 08-08-2026 - 17:28 27.9°C / 26.5%
h2-hermonville 08-08-2026 - 17:24 31°C / 25%
h1-hermonville 08-08-2026 - 17:24 27.5°C / 26.5%
h3-hermonville 08-08-2026 - 17:20 28.6°C / 26%
h4-hermonville 08-08-2026 - 17:18 28.2°C / 26.5%
h1-hermonville 08-08-2026 - 17:14 28°C / 26.5%
h3-hermonville 08-08-2026 - 17:10 28.9°C / 26%
h4-hermonville 08-08-2026 - 17:08 27.9°C / 27%
h1-hermonville 08-08-2026 - 17:04 27.8°C / 28%
h3-hermonville 08-08-2026 - 17:00 29.1°C / 26.5%
h4-hermonville 08-08-2026 - 16:58 27.8°C / 28%
h2-hermonville 08-08-2026 - 16:54 30°C / 26%
h1-hermonville 08-08-2026 - 16:54 27.6°C / 28%
h3-hermonville 08-08-2026 - 16:50 28.5°C / 27%
h4-hermonville 08-08-2026 - 16:48 27.7°C / 27%
h2-hermonville 08-08-2026 - 16:44 29.5°C / 27.5%
h1-hermonville 08-08-2026 - 16:44 27.8°C / 28%
h4-hermonville 08-08-2026 - 16:38 27.6°C / 27.5%
h2-hermonville 08-08-2026 - 16:34 29.6°C / 28%
h1-hermonville 08-08-2026 - 16:34 28°C / 28%
h3-hermonville 08-08-2026 - 16:30 28.7°C / 26.5%
h4-hermonville 08-08-2026 - 16:28 27.4°C / 28%
h2-hermonville 08-08-2026 - 16:24 27.5°C / 29%
h1-hermonville 08-08-2026 - 16:24 27.9°C / 27%
h3-hermonville 08-08-2026 - 16:20 29°C / 26.5%
h4-hermonville 08-08-2026 - 16:18 27.6°C / 28.5%
h2-hermonville 08-08-2026 - 16:14 27°C / 31.5%
h1-hermonville 08-08-2026 - 16:14 27.8°C / 28%
h3-hermonville 08-08-2026 - 16:10 28.5°C / 27%
h4-hermonville 08-08-2026 - 16:08 27.6°C / 28%
h2-hermonville 08-08-2026 - 16:04 27°C / 31%
h1-hermonville 08-08-2026 - 16:04 27.4°C / 28.5%
h3-hermonville 08-08-2026 - 16:00 28.6°C / 27%
h4-hermonville 08-08-2026 - 15:58 27.7°C / 28%
h2-hermonville 08-08-2026 - 15:54 27.2°C / 29.5%
h1-hermonville 08-08-2026 - 15:54 27°C / 29.5%
h3-hermonville 08-08-2026 - 15:50 28.2°C / 27.5%
h4-hermonville 08-08-2026 - 15:48 27.4°C / 27.5%
h2-hermonville 08-08-2026 - 15:44 26.2°C / 32%
h1-hermonville 08-08-2026 - 15:44 27°C / 29.5%
h3-hermonville 08-08-2026 - 15:40 28.6°C / 26.5%
h4-hermonville 08-08-2026 - 15:38 27.2°C / 29%
h2-hermonville 08-08-2026 - 15:34 26°C / 33.5%
h1-hermonville 08-08-2026 - 15:34 27.3°C / 29%
h3-hermonville 08-08-2026 - 15:30 28°C / 28%
h4-hermonville 08-08-2026 - 15:28 27.2°C / 29%
h2-hermonville 08-08-2026 - 15:24 25.9°C / 34%
h1-hermonville 08-08-2026 - 15:24 26.9°C / 30.5%
h3-hermonville 08-08-2026 - 15:20 27.6°C / 29%
h4-hermonville 08-08-2026 - 15:18 27.1°C / 29.5%
h2-hermonville 08-08-2026 - 15:14 25.8°C / 33.5%
h1-hermonville 08-08-2026 - 15:14 26.5°C / 31%
h3-hermonville 08-08-2026 - 15:10 27.4°C / 29.5%
h4-hermonville 08-08-2026 - 15:08 27.1°C / 29%
h2-hermonville 08-08-2026 - 15:04 25.8°C / 33%
h1-hermonville 08-08-2026 - 15:04 26.3°C / 30.5%
h3-hermonville 08-08-2026 - 15:00 27.2°C / 28%
h4-hermonville 08-08-2026 - 14:58 27°C / 29%
h2-hermonville 08-08-2026 - 14:54 25.9°C / 31.5%
h1-hermonville 08-08-2026 - 14:54 26.4°C / 30%
h3-hermonville 08-08-2026 - 14:50 27.2°C / 29.5%
h4-hermonville 08-08-2026 - 14:48 27°C / 29%
h2-hermonville 08-08-2026 - 14:44 25.3°C / 35.5%
h1-hermonville 08-08-2026 - 14:44 26.2°C / 31.5%
h3-hermonville 08-08-2026 - 14:40 27.5°C / 29.5%
h4-hermonville 08-08-2026 - 14:38 26.6°C / 31%
h2-hermonville 08-08-2026 - 14:34 25.7°C / 34.5%
h1-hermonville 08-08-2026 - 14:34 25.7°C / 32.5%
h3-hermonville 08-08-2026 - 14:30 27°C / 29.5%
h2-hermonville 08-08-2026 - 14:24 25.3°C / 34.5%
h1-hermonville 08-08-2026 - 14:24 25.6°C / 33.5%
h3-hermonville 08-08-2026 - 14:20 26.4°C / 32%
h4-hermonville 08-08-2026 - 14:18 26.4°C / 31.5%
h2-hermonville 08-08-2026 - 14:14 24.7°C / 37.5%
h1-hermonville 08-08-2026 - 14:14 25.6°C / 32.5%
h3-hermonville 08-08-2026 - 14:10 26.5°C / 32.5%
h4-hermonville 08-08-2026 - 14:08 26.3°C / 33%
h2-hermonville 08-08-2026 - 14:04 25.2°C / 36.5%
h1-hermonville 08-08-2026 - 14:04 25.4°C / 34.5%
h3-hermonville 08-08-2026 - 14:00 26.3°C / 34.5%
h4-hermonville 08-08-2026 - 13:58 26.4°C / 32.5%
h2-hermonville 08-08-2026 - 13:54 24.8°C / 38%
h1-hermonville 08-08-2026 - 13:54 25.3°C / 35%
h3-hermonville 08-08-2026 - 13:50 26°C / 34%
h4-hermonville 08-08-2026 - 13:48 26.4°C / 33.5%
h2-hermonville 08-08-2026 - 13:44 24.6°C / 39%
h1-hermonville 08-08-2026 - 13:44 25.2°C / 36%
h3-hermonville 08-08-2026 - 13:40 25.6°C / 35.5%
h4-hermonville 08-08-2026 - 13:38 26.2°C / 34%
h2-hermonville 08-08-2026 - 13:34 24.8°C / 37.5%
h1-hermonville 08-08-2026 - 13:34 25°C / 36%
h3-hermonville 08-08-2026 - 13:30 25.8°C / 35.5%
h4-hermonville 08-08-2026 - 13:28 26.2°C / 33.5%
h2-hermonville 08-08-2026 - 13:24 24.7°C / 39.5%
h1-hermonville 08-08-2026 - 13:24 24.7°C / 37.5%
h3-hermonville 08-08-2026 - 13:20 25.9°C / 35.5%
h4-hermonville 08-08-2026 - 13:18 26.2°C / 34%
h2-hermonville 08-08-2026 - 13:14 24.7°C / 37%
h1-hermonville 08-08-2026 - 13:14 24.3°C / 37%
h3-hermonville 08-08-2026 - 13:10 25.3°C / 36%
h4-hermonville 08-08-2026 - 13:08 26.1°C / 33.5%
h2-hermonville 08-08-2026 - 13:04 24.3°C / 38%
h1-hermonville 08-08-2026 - 13:04 24.2°C / 38%
h3-hermonville 08-08-2026 - 13:00 25.2°C / 37.5%
h4-hermonville 08-08-2026 - 12:58 26.5°C / 33.5%
h2-hermonville 08-08-2026 - 12:54 24°C / 41.5%
h1-hermonville 08-08-2026 - 12:54 24.3°C / 38%
h3-hermonville 08-08-2026 - 12:50 24.9°C / 38.5%
h4-hermonville 08-08-2026 - 12:48 26.6°C / 35.5%
h2-hermonville 08-08-2026 - 12:44 23.6°C / 43.5%
h1-hermonville 08-08-2026 - 12:44 24.1°C / 41%
h3-hermonville 08-08-2026 - 12:40 24.9°C / 39%
h4-hermonville 08-08-2026 - 12:38 26.5°C / 35.5%
h2-hermonville 08-08-2026 - 12:34 24°C / 42%
h1-hermonville 08-08-2026 - 12:34 23.7°C / 42%
h3-hermonville 08-08-2026 - 12:30 24.5°C / 41%
h4-hermonville 08-08-2026 - 12:28 26.5°C / 36%
h2-hermonville 08-08-2026 - 12:24 23.7°C / 43.5%
h1-hermonville 08-08-2026 - 12:24 23.4°C / 44%
h3-hermonville 08-08-2026 - 12:20 24.1°C / 43%
h4-hermonville 08-08-2026 - 12:18 27.2°C / 36%
h2-hermonville 08-08-2026 - 12:14 23.1°C / 45.5%
h1-hermonville 08-08-2026 - 12:14 23.3°C / 44%
h3-hermonville 08-08-2026 - 12:10 23.8°C / 43.5%
h4-hermonville 08-08-2026 - 12:08 29°C / 32.5%
h2-hermonville 08-08-2026 - 12:04 23.2°C / 44%
h1-hermonville 08-08-2026 - 12:04 23°C / 44.5%
h3-hermonville 08-08-2026 - 12:00 23.7°C / 44%
h4-hermonville 08-08-2026 - 11:58 30.8°C / 30.5%
h2-hermonville 08-08-2026 - 11:54 22.8°C / 45.5%
h1-hermonville 08-08-2026 - 11:54 22.6°C / 46.5%
h3-hermonville 08-08-2026 - 11:50 23.2°C / 45%
h4-hermonville 08-08-2026 - 11:48 30.6°C / 30.5%
h2-hermonville 08-08-2026 - 11:44 22.5°C / 48%
h1-hermonville 08-08-2026 - 11:44 22.4°C / 47.5%
h3-hermonville 08-08-2026 - 11:40 23°C / 45.5%
h4-hermonville 08-08-2026 - 11:38 31°C / 31%
h2-hermonville 08-08-2026 - 11:34 22.4°C / 47.5%
h1-hermonville 08-08-2026 - 11:34 22.2°C / 48%
h3-hermonville 08-08-2026 - 11:30 22.7°C / 46.5%
h4-hermonville 08-08-2026 - 11:28 29.8°C / 32.5%
h2-hermonville 08-08-2026 - 11:24 22.2°C / 47.5%
h1-hermonville 08-08-2026 - 11:24 21.8°C / 48.5%
h3-hermonville 08-08-2026 - 11:20 22.4°C / 47.5%
h4-hermonville 08-08-2026 - 11:18 29.6°C / 32.5%
h2-hermonville 08-08-2026 - 11:14 21.9°C / 48.5%
h1-hermonville 08-08-2026 - 11:14 21.4°C / 49%
h3-hermonville 08-08-2026 - 11:10 22.1°C / 48%
h4-hermonville 08-08-2026 - 11:08 29.5°C / 33%
h2-hermonville 08-08-2026 - 11:04 21.5°C / 49.5%
h1-hermonville 08-08-2026 - 11:04 21.1°C / 50.5%
h3-hermonville 08-08-2026 - 11:00 21.7°C / 48.5%
h4-hermonville 08-08-2026 - 10:58 28.6°C / 33.5%
h2-hermonville 08-08-2026 - 10:54 21.4°C / 49.5%
h1-hermonville 08-08-2026 - 10:54 21.1°C / 50%
h3-hermonville 08-08-2026 - 10:50 21.2°C / 49.5%
h4-hermonville 08-08-2026 - 10:48 27.5°C / 35.5%
h2-hermonville 08-08-2026 - 10:44 21.1°C / 50%
h1-hermonville 08-08-2026 - 10:44 20.7°C / 50.5%
h3-hermonville 08-08-2026 - 10:40 20.9°C / 48.5%
h4-hermonville 08-08-2026 - 10:38 27°C / 36%
h2-hermonville 08-08-2026 - 10:34 20.8°C / 50%
h3-hermonville 08-08-2026 - 10:30 20.9°C / 49.5%
h4-hermonville 08-08-2026 - 10:28 26.3°C / 37%
h2-hermonville 08-08-2026 - 10:24 20.7°C / 50.5%
h1-hermonville 08-08-2026 - 10:24 20°C / 52.5%
h3-hermonville 08-08-2026 - 10:20 20.8°C / 50.5%
h4-hermonville 08-08-2026 - 10:18 26.6°C / 36.5%
h2-hermonville 08-08-2026 - 10:14 20.4°C / 52%
h1-hermonville 08-08-2026 - 10:14 19.6°C / 54.5%
h3-hermonville 08-08-2026 - 10:10 20.4°C / 51.5%
h4-hermonville 08-08-2026 - 10:08 26.3°C / 37.5%
h2-hermonville 08-08-2026 - 10:04 20.3°C / 52.5%
h1-hermonville 08-08-2026 - 10:04 19°C / 56%
h3-hermonville 08-08-2026 - 10:00 20.3°C / 52%
h4-hermonville 08-08-2026 - 09:58 26°C / 38%
h2-hermonville 08-08-2026 - 09:54 20.1°C / 52.5%
h1-hermonville 08-08-2026 - 09:54 18.4°C / 57.5%
h3-hermonville 08-08-2026 - 09:50 20°C / 53%
h4-hermonville 08-08-2026 - 09:48 25.9°C / 38.5%
h2-hermonville 08-08-2026 - 09:44 19.7°C / 53%
h1-hermonville 08-08-2026 - 09:44 18°C / 58%
h3-hermonville 08-08-2026 - 09:40 19.7°C / 53.5%
h4-hermonville 08-08-2026 - 09:38 26°C / 38%
h2-hermonville 08-08-2026 - 09:34 19.4°C / 54%
h3-hermonville 08-08-2026 - 09:30 19.4°C / 53.5%
h4-hermonville 08-08-2026 - 09:28 25°C / 39.5%
h2-hermonville 08-08-2026 - 09:24 19°C / 54.5%
h1-hermonville 08-08-2026 - 09:24 17.4°C / 59.5%
h3-hermonville 08-08-2026 - 09:20 19.2°C / 54%
h4-hermonville 08-08-2026 - 09:18 24.9°C / 39%
h2-hermonville 08-08-2026 - 09:14 18.9°C / 55%
h1-hermonville 08-08-2026 - 09:14 17.3°C / 59.5%
h3-hermonville 08-08-2026 - 09:10 19°C / 54.5%
h4-hermonville 08-08-2026 - 09:08 24.2°C / 41%
h2-hermonville 08-08-2026 - 09:04 18.3°C / 56.5%
h1-hermonville 08-08-2026 - 09:04 16.9°C / 60.5%
h3-hermonville 08-08-2026 - 09:00 18.8°C / 54.5%
h4-hermonville 08-08-2026 - 08:58 23.9°C / 41.5%
h2-hermonville 08-08-2026 - 08:54 17.7°C / 58%
h1-hermonville 08-08-2026 - 08:54 16.7°C / 61.5%
h3-hermonville 08-08-2026 - 08:50 18.5°C / 56%
h4-hermonville 08-08-2026 - 08:48 24°C / 41%
h2-hermonville 08-08-2026 - 08:44 17.7°C / 58%
h1-hermonville 08-08-2026 - 08:44 16.3°C / 62.5%
h3-hermonville 08-08-2026 - 08:40 18°C / 57%
h4-hermonville 08-08-2026 - 08:38 23.5°C / 42%
h2-hermonville 08-08-2026 - 08:34 16.8°C / 60.5%
h1-hermonville 08-08-2026 - 08:34 16.1°C / 63%
h3-hermonville 08-08-2026 - 08:30 17.6°C / 58.5%
h4-hermonville 08-08-2026 - 08:28 21.5°C / 47.5%
h2-hermonville 08-08-2026 - 08:24 16.6°C / 61.5%
h1-hermonville 08-08-2026 - 08:24 15.8°C / 63.5%
h3-hermonville 08-08-2026 - 08:20 17.2°C / 59.5%
h4-hermonville 08-08-2026 - 08:18 19.7°C / 52%
h2-hermonville 08-08-2026 - 08:14 16.3°C / 62.5%
h1-hermonville 08-08-2026 - 08:14 15.5°C / 64.5%
h3-hermonville 08-08-2026 - 08:10 16.5°C / 61.5%
h2-hermonville 08-08-2026 - 08:04 15.8°C / 65%
h1-hermonville 08-08-2026 - 08:04 15.4°C / 65.5%
h3-hermonville 08-08-2026 - 08:00 16.1°C / 64%
h4-hermonville 08-08-2026 - 07:58 17.6°C / 58%
h2-hermonville 08-08-2026 - 07:54 15.2°C / 66.5%
h1-hermonville 08-08-2026 - 07:54 15.1°C / 67%
h3-hermonville 08-08-2026 - 07:50 15.5°C / 65%
h4-hermonville 08-08-2026 - 07:48 16.7°C / 60%
h2-hermonville 08-08-2026 - 07:44 14.8°C / 68%
h1-hermonville 08-08-2026 - 07:44 15.1°C / 67%
h3-hermonville 08-08-2026 - 07:40 14.9°C / 66.5%
h4-hermonville 08-08-2026 - 07:38 16.4°C / 60.5%
h2-hermonville 08-08-2026 - 07:34 14.4°C / 68%
h1-hermonville 08-08-2026 - 07:34 14.6°C / 67.5%
h3-hermonville 08-08-2026 - 07:30 14.6°C / 66.5%
h4-hermonville 08-08-2026 - 07:28 16°C / 61%
h1-hermonville 08-08-2026 - 07:24 14.5°C / 67.5%
h3-hermonville 08-08-2026 - 07:20 14.6°C / 66.5%
h4-hermonville 08-08-2026 - 07:18 15.9°C / 61.5%
h2-hermonville 08-08-2026 - 07:14 14.2°C / 68%
h1-hermonville 08-08-2026 - 07:14 14.3°C / 68%
h3-hermonville 08-08-2026 - 07:10 14.5°C / 66.5%
h4-hermonville 08-08-2026 - 07:08 15.6°C / 61.5%
h2-hermonville 08-08-2026 - 07:04 14.2°C / 68%
h3-hermonville 08-08-2026 - 07:00 14.4°C / 66.5%
h4-hermonville 08-08-2026 - 06:58 15.7°C / 61%
h2-hermonville 08-08-2026 - 06:54 14.2°C / 67%
h3-hermonville 08-08-2026 - 06:50 14.2°C / 67%
h4-hermonville 08-08-2026 - 06:48 15.8°C / 60%
h2-hermonville 08-08-2026 - 06:44 14.5°C / 66%
h1-hermonville 08-08-2026 - 06:44 13.7°C / 69%
h3-hermonville 08-08-2026 - 06:40 14.3°C / 67%
h4-hermonville 08-08-2026 - 06:38 15.8°C / 60%
h2-hermonville 08-08-2026 - 06:34 14.5°C / 66.5%
h1-hermonville 08-08-2026 - 06:34 13.6°C / 69%
h3-hermonville 08-08-2026 - 06:30 14°C / 67%
h4-hermonville 08-08-2026 - 06:28 16.4°C / 58%
h2-hermonville 08-08-2026 - 06:24 14.5°C / 66%
h1-hermonville 08-08-2026 - 06:24 13.8°C / 69%
h3-hermonville 08-08-2026 - 06:20 14.1°C / 67%
h4-hermonville 08-08-2026 - 06:18 16.5°C / 58%
h2-hermonville 08-08-2026 - 06:14 14.4°C / 67%
h1-hermonville 08-08-2026 - 06:14 13.7°C / 69%
h3-hermonville 08-08-2026 - 06:10 14.4°C / 66.5%
h4-hermonville 08-08-2026 - 06:08 16.3°C / 59%
h2-hermonville 08-08-2026 - 06:04 14.6°C / 67%
h1-hermonville 08-08-2026 - 06:04 13.9°C / 69%
h3-hermonville 08-08-2026 - 06:00 14.7°C / 65.5%
h1-hermonville 08-08-2026 - 05:54 14°C / 68.5%
h3-hermonville 08-08-2026 - 05:50 14.8°C / 65%
h2-hermonville 08-08-2026 - 05:44 14.6°C / 66.5%
h1-hermonville 08-08-2026 - 05:44 14.1°C / 68%
h3-hermonville 08-08-2026 - 05:40 15.1°C / 64%
h4-hermonville 08-08-2026 - 05:38 16.4°C / 58.5%
h2-hermonville 08-08-2026 - 05:34 14.6°C / 66%
h1-hermonville 08-08-2026 - 05:34 14.4°C / 67.5%
h3-hermonville 08-08-2026 - 05:30 15.5°C / 62%
h4-hermonville 08-08-2026 - 05:28 16.5°C / 58%
h2-hermonville 08-08-2026 - 05:24 14.5°C / 66%
h1-hermonville 08-08-2026 - 05:24 14.5°C / 66.5%
h3-hermonville 08-08-2026 - 05:20 16.2°C / 59.5%
h4-hermonville 08-08-2026 - 05:18 16.8°C / 57.5%
h1-hermonville 08-08-2026 - 05:14 14.7°C / 65.5%
h3-hermonville 08-08-2026 - 05:10 16.2°C / 59.5%
h2-hermonville 08-08-2026 - 05:04 14.9°C / 65%
h1-hermonville 08-08-2026 - 05:04 14.7°C / 65.5%
h3-hermonville 08-08-2026 - 05:00 16.5°C / 59%
h2-hermonville 08-08-2026 - 04:54 15.1°C / 64%
h1-hermonville 08-08-2026 - 04:54 14.7°C / 65.5%
h3-hermonville 08-08-2026 - 04:50 16.4°C / 59.5%
h2-hermonville 08-08-2026 - 04:44 15.2°C / 63.5%
h1-hermonville 08-08-2026 - 04:44 14.8°C / 64.5%
h3-hermonville 08-08-2026 - 04:40 16.9°C / 58%
h4-hermonville 08-08-2026 - 04:38 17.3°C / 55.5%
h2-hermonville 08-08-2026 - 04:34 15.7°C / 62%
h1-hermonville 08-08-2026 - 04:34 15°C / 63.5%
h3-hermonville 08-08-2026 - 04:30 16.8°C / 58%
h4-hermonville 08-08-2026 - 04:28 17.4°C / 55.5%
h2-hermonville 08-08-2026 - 04:24 15.7°C / 61.5%
h1-hermonville 08-08-2026 - 04:24 15°C / 63%
h3-hermonville 08-08-2026 - 04:20 16.9°C / 57.5%
h4-hermonville 08-08-2026 - 04:18 17.5°C / 54.5%
h2-hermonville 08-08-2026 - 04:14 15.9°C / 61%
h1-hermonville 08-08-2026 - 04:14 15.1°C / 63%
h3-hermonville 08-08-2026 - 04:10 16.7°C / 58%
h4-hermonville 08-08-2026 - 04:08 17.7°C / 54%
h2-hermonville 08-08-2026 - 04:04 16.3°C / 60%
h1-hermonville 08-08-2026 - 04:04 15.2°C / 63%
h3-hermonville 08-08-2026 - 04:00 17°C / 57%
h4-hermonville 08-08-2026 - 03:58 17.6°C / 54%
h2-hermonville 08-08-2026 - 03:54 16.5°C / 60%
h1-hermonville 08-08-2026 - 03:54 15.6°C / 61.5%
h3-hermonville 08-08-2026 - 03:50 17.4°C / 56%
h2-hermonville 08-08-2026 - 03:44 16.4°C / 59.5%
h1-hermonville 08-08-2026 - 03:44 15.5°C / 61.5%
h3-hermonville 08-08-2026 - 03:40 17.5°C / 55.5%
h4-hermonville 08-08-2026 - 03:38 18.3°C / 52%
h2-hermonville 08-08-2026 - 03:34 16.9°C / 58%
h1-hermonville 08-08-2026 - 03:34 15.9°C / 60%
h3-hermonville 08-08-2026 - 03:30 17.5°C / 55%
h2-hermonville 08-08-2026 - 03:24 17.3°C / 56.5%
h1-hermonville 08-08-2026 - 03:24 16°C / 59.5%
h3-hermonville 08-08-2026 - 03:20 17.7°C / 54.5%
h4-hermonville 08-08-2026 - 03:18 18.8°C / 50.5%
h2-hermonville 08-08-2026 - 03:14 17.8°C / 54%
h1-hermonville 08-08-2026 - 03:14 16.4°C / 58.5%
h3-hermonville 08-08-2026 - 03:10 18°C / 53%
h4-hermonville 08-08-2026 - 03:08 19.4°C / 48.5%
h2-hermonville 08-08-2026 - 03:04 18.1°C / 53%
h1-hermonville 08-08-2026 - 03:04 16.5°C / 57.5%
h3-hermonville 08-08-2026 - 03:00 18.2°C / 52%
h4-hermonville 08-08-2026 - 02:58 19.3°C / 48.5%
h2-hermonville 08-08-2026 - 02:54 18.2°C / 52.5%
h1-hermonville 08-08-2026 - 02:54 16.6°C / 57.5%
h3-hermonville 08-08-2026 - 02:50 18.2°C / 52%
h4-hermonville 08-08-2026 - 02:48 19.5°C / 48%
h2-hermonville 08-08-2026 - 02:44 18.4°C / 52%
h1-hermonville 08-08-2026 - 02:44 16.7°C / 57%
h3-hermonville 08-08-2026 - 02:40 18.3°C / 51.5%
h4-hermonville 08-08-2026 - 02:38 19.9°C / 47%
h2-hermonville 08-08-2026 - 02:34 18.6°C / 51.5%
h1-hermonville 08-08-2026 - 02:34 16.7°C / 56.5%
h3-hermonville 08-08-2026 - 02:30 18.4°C / 51.5%
h4-hermonville 08-08-2026 - 02:28 20°C / 47.5%
h2-hermonville 08-08-2026 - 02:24 18.8°C / 50.5%
h1-hermonville 08-08-2026 - 02:24 16.8°C / 56%
h3-hermonville 08-08-2026 - 02:20 18.6°C / 51%
h4-hermonville 08-08-2026 - 02:18 19.9°C / 47%
h2-hermonville 08-08-2026 - 02:14 19.1°C / 50%
h1-hermonville 08-08-2026 - 02:14 17°C / 56%
h3-hermonville 08-08-2026 - 02:10 18.8°C / 50.5%
h4-hermonville 08-08-2026 - 02:08 20°C / 47%
h2-hermonville 08-08-2026 - 02:04 19°C / 50.5%
h1-hermonville 08-08-2026 - 02:04 17°C / 55.5%
h3-hermonville 08-08-2026 - 02:00 18.7°C / 51%
h4-hermonville 08-08-2026 - 01:58 20.3°C / 46.5%
h2-hermonville 08-08-2026 - 01:54 19.4°C / 49%
h1-hermonville 08-08-2026 - 01:54 17.2°C / 55.5%
h3-hermonville 08-08-2026 - 01:50 18.9°C / 50%
h4-hermonville 08-08-2026 - 01:48 20.3°C / 46.5%
h2-hermonville 08-08-2026 - 01:44 19.4°C / 49.5%
h1-hermonville 08-08-2026 - 01:44 17.4°C / 54.5%
h3-hermonville 08-08-2026 - 01:40 18.9°C / 50%
h1-hermonville 08-08-2026 - 01:34 17.4°C / 54.5%
h3-hermonville 08-08-2026 - 01:30 19°C / 50%
h2-hermonville 08-08-2026 - 01:24 19.5°C / 49%
h1-hermonville 08-08-2026 - 01:24 17.5°C / 54.5%
h3-hermonville 08-08-2026 - 01:20 19.2°C / 49.5%
h2-hermonville 08-08-2026 - 01:14 19.6°C / 49%
h1-hermonville 08-08-2026 - 01:14 17.5°C / 54.5%
h3-hermonville 08-08-2026 - 01:10 19.2°C / 49.5%
h4-hermonville 08-08-2026 - 01:08 20.5°C / 46.5%
h2-hermonville 08-08-2026 - 01:04 19.5°C / 49%
h1-hermonville 08-08-2026 - 01:04 17.6°C / 54.5%
h3-hermonville 08-08-2026 - 01:00 19.4°C / 49%
h4-hermonville 08-08-2026 - 00:58 20.6°C / 46.5%
h2-hermonville 08-08-2026 - 00:54 19.7°C / 48.5%
h1-hermonville 08-08-2026 - 00:54 17.7°C / 54%
h3-hermonville 08-08-2026 - 00:50 19.5°C / 49%
h4-hermonville 08-08-2026 - 00:48 20.6°C / 45.5%
h2-hermonville 08-08-2026 - 00:44 20.4°C / 47%
h1-hermonville 08-08-2026 - 00:44 17.9°C / 53%
h3-hermonville 08-08-2026 - 00:40 19.6°C / 48.5%
h1-hermonville 08-08-2026 - 00:34 18.2°C / 53%
h3-hermonville 08-08-2026 - 00:30 19.7°C / 48%
h4-hermonville 08-08-2026 - 00:28 20.9°C / 45.5%
h2-hermonville 08-08-2026 - 00:24 21.1°C / 45%
h1-hermonville 08-08-2026 - 00:24 18.4°C / 52%
h3-hermonville 08-08-2026 - 00:20 19.9°C / 47.5%
h4-hermonville 08-08-2026 - 00:18 20.9°C / 45%
h2-hermonville 08-08-2026 - 00:14 21.3°C / 44.5%
h1-hermonville 08-08-2026 - 00:14 18.6°C / 51.5%
h3-hermonville 08-08-2026 - 00:10 20°C / 47%
h4-hermonville 08-08-2026 - 00:08 21°C / 45%
h2-hermonville 08-08-2026 - 00:04 21.6°C / 44.5%
h1-hermonville 08-08-2026 - 00:04 18.7°C / 51%
h3-hermonville 08-08-2026 - 00:00 20.3°C / 47%